Time;durP1;ratioP1;P1;durP2;ratioP2;P2;SDS_P1;SDS_P2;PMS_P1;PMS_P2;Temp;Humidity;BMP_temperature;BMP_pressure;BME280_temperature;BME280_humidity;BME280_pressure;Samples;Min_cycle;Max_cycle;Signal;HPM_P1;HPM_P2
2023/01/22 00:01:39;;;;;;;5.82;4.90;;;;;;;;;;5052967;28;20216;-84
2023/01/22 00:04:09;;;;;;;5.82;4.95;;;;;;;;;;5052363;28;20732;-85
2023/01/22 00:06:36;;;;;;;5.35;4.85;;;;;;;;;;5052676;28;20216;-85
2023/01/22 00:09:04;;;;;;;4.18;3.78;;;;;;;;;;5052404;28;20225;-84
2023/01/22 00:11:31;;;;;;;4.88;4.38;;;;;;;;;;5052559;28;20307;-85
2023/01/22 00:13:59;;;;;;;6.40;4.57;;;;;;;;;;5052201;28;20260;-84
2023/01/22 00:16:26;;;;;;;4.60;4.15;;;;;;;;;;5052131;28;20292;-85
2023/01/22 00:18:54;;;;;;;6.03;4.18;;;;;;;;;;5051297;28;20284;-84
2023/01/22 00:21:23;;;;;;;4.28;3.88;;;;;;;;;;5051912;28;20292;-84
2023/01/22 00:23:50;;;;;;;4.93;4.50;;;;;;;;;;5051648;28;20226;-85
2023/01/22 00:26:19;;;;;;;4.57;4.18;;;;;;;;;;5051866;28;20292;-84
2023/01/22 00:28:47;;;;;;;4.97;4.43;;;;;;;;;;5051535;28;20216;-85
2023/01/22 00:31:16;;;;;;;5.90;4.65;;;;;;;;;;5052109;28;20205;-85
2023/01/22 00:33:44;;;;;;;11.00;5.97;;;;;;;;;;5053819;28;20284;-84
2023/01/22 00:36:15;;;;;;;5.03;3.95;;;;;;;;;;5054502;28;20244;-85
2023/01/22 00:38:44;;;;;;;4.35;3.92;;;;;;;;;;5051606;28;20212;-85
2023/01/22 00:41:12;;;;;;;4.75;4.15;;;;;;;;;;5053921;28;20295;-84
2023/01/22 00:43:40;;;;;;;4.13;3.72;;;;;;;;;;5058394;28;20221;-82
2023/01/22 00:46:09;;;;;;;3.85;3.50;;;;;;;;;;5058354;28;20210;-84
2023/01/22 00:48:37;;;;;;;4.55;4.15;;;;;;;;;;5056131;28;20209;-84
2023/01/22 00:51:07;;;;;;;3.50;3.20;;;;;;;;;;5056582;28;20573;-85
2023/01/22 00:53:34;;;;;;;3.53;3.20;;;;;;;;;;5057704;28;20217;-84
2023/01/22 00:56:05;;;;;;;4.05;3.42;;;;;;;;;;5057306;28;20292;-86
2023/01/22 00:58:32;;;;;;;3.72;3.42;;;;;;;;;;5056946;28;20201;-84
2023/01/22 01:01:01;;;;;;;3.75;3.45;;;;;;;;;;5063253;28;20663;-83
2023/01/22 01:03:30;;;;;;;5.38;4.28;;;;;;;;;;5058779;28;20234;-85
2023/01/22 01:06:01;;;;;;;3.30;3.00;;;;;;;;;;5054477;28;20300;-85
2023/01/22 01:08:30;;;;;;;4.90;4.50;;;;;;;;;;5055655;28;20684;-85
2023/01/22 01:11:01;;;;;;;3.22;2.60;;;;;;;;;;5055643;28;20209;-84
2023/01/22 01:13:36;;;;;;;4.18;3.38;;;;;;;;;;5056620;28;20587;-85
2023/01/22 01:16:07;;;;;;;3.10;2.80;;;;;;;;;;5056205;28;20197;-84
2023/01/22 01:18:35;;;;;;;3.42;3.13;;;;;;;;;;5054789;28;20244;-84
2023/01/22 01:21:03;;;;;;;4.68;4.25;;;;;;;;;;5055824;28;20213;-84
2023/01/22 01:23:31;;;;;;;3.67;3.40;;;;;;;;;;5055509;28;20241;-85
2023/01/22 01:25:58;;;;;;;2.97;2.72;;;;;;;;;;5054939;28;20785;-84
2023/01/22 01:28:27;;;;;;;3.95;3.28;;;;;;;;;;5054141;28;20205;-85
2023/01/22 01:30:56;;;;;;;4.55;3.05;;;;;;;;;;5054974;28;20206;-84
2023/01/22 01:33:23;;;;;;;3.65;3.35;;;;;;;;;;5054848;28;20253;-85
2023/01/22 01:36:00;;;;;;;3.47;3.17;;;;;;;;;;5054811;28;20727;-84
2023/01/22 01:38:28;;;;;;;3.72;3.13;;;;;;;;;;5053890;28;20224;-85
2023/01/22 01:40:55;;;;;;;3.38;3.10;;;;;;;;;;5054525;28;20284;-84
2023/01/22 01:43:23;;;;;;;3.40;3.10;;;;;;;;;;5054678;28;20252;-86
2023/01/22 01:45:51;;;;;;;3.83;3.15;;;;;;;;;;5055659;28;20202;-84
2023/01/22 01:48:26;;;;;;;3.25;2.95;;;;;;;;;;5054332;28;20237;-84
2023/01/22 01:50:59;;;;;;;2.97;2.78;;;;;;;;;;5055050;28;20319;-84
2023/01/22 01:53:26;;;;;;;3.03;2.67;;;;;;;;;;5054345;28;20599;-85
2023/01/22 01:55:55;;;;;;;3.00;2.72;;;;;;;;;;5054434;28;20229;-84
2023/01/22 01:58:23;;;;;;;2.65;2.45;;;;;;;;;;5053825;28;20267;-85
2023/01/22 02:00:54;;;;;;;3.05;2.85;;;;;;;;;;5054328;28;20225;-85
2023/01/22 02:03:22;;;;;;;2.47;2.28;;;;;;;;;;5054062;28;20257;-84
2023/01/22 02:05:50;;;;;;;2.60;2.40;;;;;;;;;;5052948;28;20296;-84
2023/01/22 02:08:18;;;;;;;3.33;2.92;;;;;;;;;;5053842;28;20296;-84
2023/01/22 02:10:45;;;;;;;3.90;3.55;;;;;;;;;;5054166;28;20273;-85
2023/01/22 02:13:22;;;;;;;3.38;3.08;;;;;;;;;;5054135;28;20308;-84
2023/01/22 02:15:49;;;;;;;2.92;2.72;;;;;;;;;;5054264;28;20212;-85
2023/01/22 02:18:17;;;;;;;3.58;3.25;;;;;;;;;;5053668;28;20237;-85
2023/01/22 02:20:55;;;;;;;3.33;2.60;;;;;;;;;;5054122;28;20208;-84
2023/01/22 02:23:23;;;;;;;3.22;2.92;;;;;;;;;;5068391;28;20269;-85
2023/01/22 02:25:50;;;;;;;3.17;2.85;;;;;;;;;;5074390;28;20283;-84
2023/01/22 02:28:18;;;;;;;3.45;3.15;;;;;;;;;;5066530;28;20260;-84
2023/01/22 02:30:46;;;;;;;2.90;2.70;;;;;;;;;;5054306;28;20197;-83
2023/01/22 02:33:14;;;;;;;3.30;3.00;;;;;;;;;;5054409;28;20249;-85
2023/01/22 02:35:41;;;;;;;4.00;3.63;;;;;;;;;;5054043;28;20198;-85
2023/01/22 02:38:10;;;;;;;4.93;3.55;;;;;;;;;;5053358;28;20237;-83
2023/01/22 02:40:47;;;;;;;4.03;3.67;;;;;;;;;;5054225;28;20260;-85
2023/01/22 02:43:16;;;;;;;3.28;2.97;;;;;;;;;;5054088;28;20264;-84
2023/01/22 02:45:43;;;;;;;3.05;2.85;;;;;;;;;;5054602;28;20230;-84
2023/01/22 02:48:11;;;;;;;3.40;3.10;;;;;;;;;;5053072;28;20233;-84
2023/01/22 02:50:38;;;;;;;3.45;3.22;;;;;;;;;;5053855;28;20591;-84
2023/01/22 02:53:06;;;;;;;4.95;4.20;;;;;;;;;;5053751;28;20312;-85
2023/01/22 02:55:34;;;;;;;3.15;2.90;;;;;;;;;;5052751;28;20232;-84
2023/01/22 02:58:02;;;;;;;4.35;3.95;;;;;;;;;;5052205;28;20249;-84
2023/01/22 03:00:29;;;;;;;3.83;3.53;;;;;;;;;;5053036;28;20263;-86
2023/01/22 03:02:57;;;;;;;3.38;3.08;;;;;;;;;;5052883;28;20320;-84
2023/01/22 03:05:25;;;;;;;3.45;3.15;;;;;;;;;;5065227;28;20328;-85
2023/01/22 03:07:52;;;;;;;3.88;3.58;;;;;;;;;;5072931;28;20224;-82
2023/01/22 03:10:21;;;;;;;3.63;3.33;;;;;;;;;;5072148;28;20204;-84
2023/01/22 03:21:15;;;;;;;3.40;3.10;;;;;;;;;;5072704;28;20243;-83
2023/01/22 03:23:44;;;;;;;3.28;2.97;;;;;;;;;;5072514;28;20299;-85
2023/01/22 03:26:11;;;;;;;3.60;3.30;;;;;;;;;;5072324;28;20229;-84
2023/01/22 03:28:40;;;;;;;3.28;3.05;;;;;;;;;;5061508;28;20297;-84
2023/01/22 03:31:10;;;;;;;4.10;3.13;;;;;;;;;;5052046;28;20296;-86
2023/01/22 03:33:37;;;;;;;3.92;3.63;;;;;;;;;;5052319;28;20249;-85
2023/01/22 03:36:08;;;;;;;3.60;3.22;;;;;;;;;;5052395;28;20237;-84
2023/01/22 03:38:36;;;;;;;2.70;2.50;;;;;;;;;;5051748;28;20207;-85
2023/01/22 03:41:06;;;;;;;3.67;3.33;;;;;;;;;;5052336;28;20729;-85
2023/01/22 03:43:34;;;;;;;3.17;2.90;;;;;;;;;;5052861;28;20217;-85
2023/01/22 03:46:05;;;;;;;2.45;2.25;;;;;;;;;;5052012;28;20722;-84
2023/01/22 03:48:32;;;;;;;2.78;2.58;;;;;;;;;;5051664;28;20701;-85
2023/01/22 03:51:06;;;;;;;3.15;2.58;;;;;;;;;;5052193;28;20308;-84
2023/01/22 03:53:34;;;;;;;3.55;3.25;;;;;;;;;;5052270;28;20255;-85
2023/01/22 03:56:03;;;;;;;3.28;2.97;;;;;;;;;;5052251;28;20654;-85
2023/01/22 03:58:31;;;;;;;3.03;2.80;;;;;;;;;;5051119;28;20215;-84
2023/01/22 04:01:04;;;;;;;2.63;2.42;;;;;;;;;;5051884;28;20207;-84
2023/01/22 04:03:32;;;;;;;2.67;2.47;;;;;;;;;;5052218;28;20263;-84
2023/01/22 04:06:00;;;;;;;3.38;3.03;;;;;;;;;;5050320;28;20335;-84
2023/01/22 04:08:28;;;;;;;4.07;3.67;;;;;;;;;;5051147;28;20292;-85
2023/01/22 04:10:56;;;;;;;4.40;3.08;;;;;;;;;;5051421;28;20207;-85
2023/01/22 04:13:24;;;;;;;3.00;2.78;;;;;;;;;;5051584;28;20316;-84
2023/01/22 04:15:51;;;;;;;3.25;2.95;;;;;;;;;;5051677;28;20197;-84
2023/01/22 04:18:20;;;;;;;3.78;2.88;;;;;;;;;;5050813;28;20208;-84
2023/01/22 04:20:50;;;;;;;2.50;2.30;;;;;;;;;;5051841;28;20331;-85
2023/01/22 04:23:17;;;;;;;2.75;2.55;;;;;;;;;;5051776;28;20308;-84
2023/01/22 04:25:46;;;;;;;3.58;3.28;;;;;;;;;;5051486;28;20217;-85
2023/01/22 04:28:14;;;;;;;2.63;2.13;;;;;;;;;;5050825;28;21062;-85
2023/01/22 04:30:42;;;;;;;3.78;2.95;;;;;;;;;;5051083;28;20696;-86
2023/01/22 04:33:10;;;;;;;3.10;2.80;;;;;;;;;;5051193;28;20221;-85
2023/01/22 04:35:39;;;;;;;2.67;2.45;;;;;;;;;;5051479;28;20199;-85
2023/01/22 04:38:09;;;;;;;2.58;2.40;;;;;;;;;;5050241;28;20749;-84
2023/01/22 04:40:36;;;;;;;2.53;2.33;;;;;;;;;;5050886;28;20208;-84
2023/01/22 04:43:06;;;;;;;2.63;2.42;;;;;;;;;;5051170;28;20316;-85
2023/01/22 04:45:34;;;;;;;2.67;2.47;;;;;;;;;;5051949;28;20229;-85
2023/01/22 04:48:02;;;;;;;2.83;2.63;;;;;;;;;;5060351;28;20201;-84
2023/01/22 04:50:32;;;;;;;2.60;2.40;;;;;;;;;;5049973;28;20193;-85
2023/01/22 04:53:02;;;;;;;2.53;2.33;;;;;;;;;;5051244;28;20228;-85
2023/01/22 04:55:30;;;;;;;2.55;2.35;;;;;;;;;;5051042;28;20684;-85
2023/01/22 04:57:59;;;;;;;4.18;3.17;;;;;;;;;;5051039;28;20206;-83
2023/01/22 05:00:27;;;;;;;2.42;2.22;;;;;;;;;;5051395;28;20228;-84
2023/01/22 05:02:57;;;;;;;2.80;2.60;;;;;;;;;;5051178;28;20316;-85
2023/01/22 05:05:25;;;;;;;2.75;2.50;;;;;;;;;;5049129;28;20225;-85
2023/01/22 05:07:53;;;;;;;2.70;2.50;;;;;;;;;;5050701;28;20197;-84
2023/01/22 05:10:22;;;;;;;2.70;2.50;;;;;;;;;;5050295;28;20212;-84
2023/01/22 05:12:50;;;;;;;2.53;2.33;;;;;;;;;;5050499;28;20751;-85
2023/01/22 05:15:18;;;;;;;2.30;2.13;;;;;;;;;;5050676;28;20197;-84
2023/01/22 05:17:46;;;;;;;3.42;2.40;;;;;;;;;;5050784;28;20262;-85
2023/01/22 05:20:13;;;;;;;2.70;2.50;;;;;;;;;;5049967;28;20280;-84
2023/01/22 05:22:41;;;;;;;2.90;2.70;;;;;;;;;;5050729;28;20205;-85
2023/01/22 05:25:09;;;;;;;2.67;2.47;;;;;;;;;;5050894;28;20654;-84
2023/01/22 05:27:38;;;;;;;2.90;2.70;;;;;;;;;;5048802;28;20574;-85
2023/01/22 05:30:08;;;;;;;2.70;2.50;;;;;;;;;;5033411;28;20293;-85
2023/01/22 05:32:35;;;;;;;2.35;2.15;;;;;;;;;;5034518;28;20213;-85
2023/01/22 05:35:03;;;;;;;2.40;2.20;;;;;;;;;;5034646;28;20226;-84
2023/01/22 05:37:32;;;;;;;2.85;2.30;;;;;;;;;;5034414;28;20299;-85
2023/01/22 05:39:59;;;;;;;2.75;2.38;;;;;;;;;;5033203;28;20212;-85
2023/01/22 05:42:26;;;;;;;2.72;2.50;;;;;;;;;;5034077;28;20229;-86
2023/01/22 05:44:55;;;;;;;2.40;2.10;;;;;;;;;;5034466;28;20210;-86
2023/01/22 05:47:23;;;;;;;2.13;2.03;;;;;;;;;;5033864;28;20420;-85
2023/01/22 05:49:50;;;;;;;2.30;2.10;;;;;;;;;;5033193;28;20285;-86
2023/01/22 05:52:18;;;;;;;2.30;2.10;;;;;;;;;;5034176;28;20293;-86
2023/01/22 05:54:45;;;;;;;2.10;2.00;;;;;;;;;;5033698;28;20318;-85
2023/01/22 05:57:13;;;;;;;2.30;2.20;;;;;;;;;;5033972;28;20710;-86
2023/01/22 05:59:40;;;;;;;1.90;1.80;;;;;;;;;;5033032;28;20932;-86
2023/01/22 06:02:09;;;;;;;2.00;1.90;;;;;;;;;;5034199;28;20289;-86
2023/01/22 06:04:37;;;;;;;2.40;2.20;;;;;;;;;;5032093;28;20313;-86
2023/01/22 06:07:04;;;;;;;1.90;1.80;;;;;;;;;;5033576;28;20228;-86
2023/01/22 06:09:32;;;;;;;2.08;1.80;;;;;;;;;;5033238;28;20285;-86
2023/01/22 06:11:59;;;;;;;2.05;1.92;;;;;;;;;;5033716;28;20289;-87
2023/01/22 06:14:26;;;;;;;1.65;1.55;;;;;;;;;;5033451;28;20309;-86
2023/01/22 06:16:54;;;;;;;2.13;2.03;;;;;;;;;;5033455;28;20729;-86
2023/01/22 06:19:23;;;;;;;1.70;1.60;;;;;;;;;;5032898;28;20237;-85
2023/01/22 06:21:50;;;;;;;2.33;2.15;;;;;;;;;;5033687;28;20627;-85
2023/01/22 06:24:18;;;;;;;2.00;1.90;;;;;;;;;;5033857;28;20226;-85
2023/01/22 06:26:45;;;;;;;2.17;1.90;;;;;;;;;;5033548;28;20688;-87
2023/01/22 06:29:13;;;;;;;2.13;1.95;;;;;;;;;;5047983;28;20292;-86
2023/01/22 06:31:41;;;;;;;2.17;2.03;;;;;;;;;;5053016;28;20678;-86
2023/01/22 06:34:09;;;;;;;2.22;2.10;;;;;;;;;;5052700;28;20312;-86
2023/01/22 06:36:38;;;;;;;2.20;2.00;;;;;;;;;;5053478;28;20662;-86
2023/01/22 06:39:05;;;;;;;2.63;2.42;;;;;;;;;;5052118;28;20248;-87
2023/01/22 06:41:33;;;;;;;2.47;2.28;;;;;;;;;;5053400;28;20380;-87
2023/01/22 06:44:00;;;;;;;2.35;2.13;;;;;;;;;;5053218;28;20603;-87
2023/01/22 06:46:28;;;;;;;1.95;1.85;;;;;;;;;;5053014;28;20225;-86
2023/01/22 06:48:57;;;;;;;2.55;2.35;;;;;;;;;;5051961;28;20753;-87
2023/01/22 06:51:25;;;;;;;1.83;1.73;;;;;;;;;;5052995;28;20205;-86
2023/01/22 06:53:54;;;;;;;1.75;1.65;;;;;;;;;;5052952;28;20225;-85
2023/01/22 06:56:21;;;;;;;1.73;1.63;;;;;;;;;;5053120;28;20237;-86
2023/01/22 06:58:49;;;;;;;1.88;1.77;;;;;;;;;;5051973;28;20647;-85
2023/01/22 07:01:16;;;;;;;1.83;1.73;;;;;;;;;;5052812;28;20194;-87
2023/01/22 07:03:44;;;;;;;2.45;2.25;;;;;;;;;;5052087;28;20335;-87
2023/01/22 07:06:13;;;;;;;1.70;1.60;;;;;;;;;;5051436;28;20728;-87
2023/01/22 07:08:41;;;;;;;1.80;1.70;;;;;;;;;;5052370;28;20293;-85
2023/01/22 07:11:10;;;;;;;2.03;1.92;;;;;;;;;;5052971;28;20232;-86
2023/01/22 07:13:37;;;;;;;2.22;1.60;;;;;;;;;;5052893;28;20335;-86
2023/01/22 07:16:06;;;;;;;1.80;1.70;;;;;;;;;;5052699;28;20741;-86
2023/01/22 07:18:34;;;;;;;2.15;1.95;;;;;;;;;;5052012;28;20198;-87
2023/01/22 07:21:02;;;;;;;1.92;1.75;;;;;;;;;;5052315;28;20292;-86
2023/01/22 07:23:30;;;;;;;1.73;1.63;;;;;;;;;;5052340;28;20313;-85
2023/01/22 07:25:58;;;;;;;2.22;2.03;;;;;;;;;;5052915;28;20292;-86
2023/01/22 07:28:27;;;;;;;2.13;2.03;;;;;;;;;;5051576;28;20687;-85
2023/01/22 07:30:55;;;;;;;1.95;1.85;;;;;;;;;;5052184;28;20674;-86
2023/01/22 07:33:22;;;;;;;1.67;1.58;;;;;;;;;;5052294;28;20240;-86
2023/01/22 07:35:55;;;;;;;2.55;2.25;;;;;;;;;;5052348;28;20201;-86
2023/01/22 07:38:23;;;;;;;2.15;1.95;;;;;;;;;;5051222;28;20208;-86
2023/01/22 07:40:50;;;;;;;1.77;1.65;;;;;;;;;;5052020;28;20652;-85
2023/01/22 07:43:18;;;;;;;2.05;1.80;;;;;;;;;;5052290;28;20261;-85
2023/01/22 07:45:47;;;;;;;1.77;1.67;;;;;;;;;;5052837;28;20281;-86
2023/01/22 07:48:14;;;;;;;2.35;2.15;;;;;;;;;;5051206;28;20236;-86
2023/01/22 07:50:42;;;;;;;1.60;1.50;;;;;;;;;;5051298;28;20232;-84
2023/01/22 07:53:10;;;;;;;2.15;2.05;;;;;;;;;;5051243;28;20304;-86
2023/01/22 07:55:38;;;;;;;2.10;2.00;;;;;;;;;;5051995;28;20208;-86
2023/01/22 07:58:07;;;;;;;1.90;1.80;;;;;;;;;;5051216;28;20591;-86
2023/01/22 08:00:36;;;;;;;2.10;2.00;;;;;;;;;;5051490;28;20616;-86
2023/01/22 08:03:09;;;;;;;2.55;2.35;;;;;;;;;;5051476;28;20221;-86
2023/01/22 08:05:37;;;;;;;2.33;2.13;;;;;;;;;;5050075;28;20580;-85
2023/01/22 08:08:05;;;;;;;2.17;2.05;;;;;;;;;;5050940;28;20213;-86
2023/01/22 08:10:33;;;;;;;2.22;2.13;;;;;;;;;;5051544;28;20758;-87
2023/01/22 08:13:00;;;;;;;2.00;1.90;;;;;;;;;;5051617;28;20305;-86
2023/01/22 08:15:28;;;;;;;2.10;2.00;;;;;;;;;;5052317;28;20292;-87
2023/01/22 08:17:56;;;;;;;1.50;1.40;;;;;;;;;;5052241;28;20228;-87
2023/01/22 08:20:24;;;;;;;2.20;2.00;;;;;;;;;;5051933;28;20197;-87
2023/01/22 08:22:56;;;;;;;2.13;2.03;;;;;;;;;;5051621;28;20233;-86
2023/01/22 08:25:24;;;;;;;2.63;2.50;;;;;;;;;;5060312;28;20233;-85
2023/01/22 08:27:51;;;;;;;1.90;1.80;;;;;;;;;;5053065;28;20221;-85
2023/01/22 08:30:19;;;;;;;2.28;2.08;;;;;;;;;;5052249;28;20225;-87
2023/01/22 08:32:47;;;;;;;2.25;2.15;;;;;;;;;;5051633;28;20304;-86
2023/01/22 08:35:14;;;;;;;2.08;1.98;;;;;;;;;;5052105;28;20193;-87
2023/01/22 08:37:43;;;;;;;2.25;2.15;;;;;;;;;;5051740;28;20201;-84
2023/01/22 08:40:12;;;;;;;3.53;2.92;;;;;;;;;;5032665;28;20199;-86
2023/01/22 08:42:40;;;;;;;2.28;2.08;;;;;;;;;;5031597;28;20218;-85
2023/01/22 08:45:09;;;;;;;1.98;1.88;;;;;;;;;;5031299;28;20207;-85
2023/01/22 08:47:36;;;;;;;1.80;1.70;;;;;;;;;;5031336;28;20226;-86
2023/01/22 08:50:05;;;;;;;1.85;1.75;;;;;;;;;;5030753;28;20293;-85
2023/01/22 08:52:32;;;;;;;2.03;1.92;;;;;;;;;;5033543;28;20198;-84
2023/01/22 08:55:01;;;;;;;1.88;1.77;;;;;;;;;;5030514;28;20859;-85
2023/01/22 08:57:29;;;;;;;1.63;1.52;;;;;;;;;;5031824;28;20284;-85
2023/01/22 08:59:56;;;;;;;2.35;2.15;;;;;;;;;;5049861;28;20205;-86
2023/01/22 09:02:24;;;;;;;1.90;1.80;;;;;;;;;;5051157;28;20201;-85
2023/01/22 09:04:51;;;;;;;2.08;1.92;;;;;;;;;;5052137;28;20253;-86
2023/01/22 09:07:19;;;;;;;1.70;1.60;;;;;;;;;;5054980;28;20694;-85
2023/01/22 09:09:46;;;;;;;2.03;1.92;;;;;;;;;;5057911;28;20269;-86
2023/01/22 09:12:15;;;;;;;2.08;1.98;;;;;;;;;;5057208;28;20838;-89
2023/01/22 09:14:43;;;;;;;4.65;4.05;;;;;;;;;;5058144;28;20237;-87
2023/01/22 09:17:10;;;;;;;4.55;4.15;;;;;;;;;;5055390;28;20733;-89
2023/01/22 09:19:38;;;;;;;2.40;2.20;;;;;;;;;;5059156;28;20225;-89
2023/01/22 09:22:06;;;;;;;2.60;2.28;;;;;;;;;;5056394;28;20208;-89
2023/01/22 09:24:34;;;;;;;1.90;1.80;;;;;;;;;;5058635;28;20225;-89
2023/01/22 09:27:01;;;;;;;2.08;1.98;;;;;;;;;;5057653;28;20224;-89
2023/01/22 09:29:30;;;;;;;1.95;1.85;;;;;;;;;;5056562;28;20229;-88
2023/01/22 09:31:58;;;;;;;2.22;2.05;;;;;;;;;;5057230;28;20620;-89
2023/01/22 09:34:25;;;;;;;1.60;1.55;;;;;;;;;;5058144;28;20694;-89
2023/01/22 09:36:53;;;;;;;2.15;1.95;;;;;;;;;;5057359;28;20269;-89
2023/01/22 09:39:21;;;;;;;2.08;1.98;;;;;;;;;;5058002;28;20206;-90
2023/01/22 09:41:51;;;;;;;2.17;1.98;;;;;;;;;;5056815;28;20231;-89
2023/01/22 09:44:22;;;;;;;2.55;2.35;;;;;;;;;;5057558;28;20684;-84
2023/01/22 09:46:53;;;;;;;2.10;2.00;;;;;;;;;;5059008;28;20209;-84
2023/01/22 09:49:23;;;;;;;2.42;2.22;;;;;;;;;;5058185;28;20230;-83
2023/01/22 09:51:55;;;;;;;2.53;2.33;;;;;;;;;;5059524;28;20216;-82
2023/01/22 09:54:24;;;;;;;2.90;2.70;;;;;;;;;;5058672;28;20268;-85
2023/01/22 09:56:54;;;;;;;4.18;3.78;;;;;;;;;;5058125;28;20201;-85
2023/01/22 09:59:24;;;;;;;5.03;4.13;;;;;;;;;;5056304;28;20201;-84
2023/01/22 10:01:54;;;;;;;3.65;3.35;;;;;;;;;;5057137;28;20215;-84
2023/01/22 10:04:37;;;;;;;3.05;2.85;;;;;;;;;;5058463;28;20221;-85
2023/01/22 10:07:10;;;;;;;2.20;2.00;;;;;;;;;;5057522;28;20214;-84
2023/01/22 10:09:38;;;;;;;2.90;2.70;;;;;;;;;;5057568;28;20253;-85
2023/01/22 10:12:13;;;;;;;2.25;2.05;;;;;;;;;;5060743;28;20198;-84
2023/01/22 10:14:42;;;;;;;2.60;2.40;;;;;;;;;;5059288;28;20229;-85
2023/01/22 10:17:19;;;;;;;2.90;2.70;;;;;;;;;;5058342;28;20639;-84
2023/01/22 10:19:50;;;;;;;2.05;1.95;;;;;;;;;;5058811;28;20678;-86
2023/01/22 10:22:22;;;;;;;2.55;2.35;;;;;;;;;;5058665;28;20205;-84
2023/01/22 10:24:50;;;;;;;2.75;2.55;;;;;;;;;;5059073;28;20729;-85
2023/01/22 10:27:21;;;;;;;2.40;2.30;;;;;;;;;;5058943;28;20209;-83
2023/01/22 10:29:59;;;;;;;2.10;2.00;;;;;;;;;;5058383;28;20225;-84
2023/01/22 10:32:30;;;;;;;2.60;2.40;;;;;;;;;;5060623;28;20287;-83
2023/01/22 10:35:01;;;;;;;2.45;2.35;;;;;;;;;;5059872;28;20293;-85
2023/01/22 10:37:29;;;;;;;1.95;1.85;;;;;;;;;;5058016;28;20611;-84
2023/01/22 10:39:59;;;;;;;1.88;1.77;;;;;;;;;;5056931;28;20197;-85
2023/01/22 10:42:28;;;;;;;1.90;1.80;;;;;;;;;;5058170;28;20197;-84
2023/01/22 10:44:57;;;;;;;2.40;2.30;;;;;;;;;;5057994;28;20289;-84
2023/01/22 10:47:27;;;;;;;2.35;2.17;;;;;;;;;;5059187;28;20206;-85
2023/01/22 10:50:10;;;;;;;1.80;1.70;;;;;;;;;;5058095;28;20678;-84
2023/01/22 10:52:42;;;;;;;2.40;2.20;;;;;;;;;;5056528;28;20288;-84
2023/01/22 10:55:22;;;;;;;2.05;1.95;;;;;;;;;;5057987;28;20586;-85
2023/01/22 10:57:52;;;;;;;2.33;2.15;;;;;;;;;;5054398;28;20292;-84
2023/01/22 11:00:31;;;;;;;2.42;2.33;;;;;;;;;;5053775;28;20289;-84
2023/01/22 11:03:00;;;;;;;2.70;2.50;;;;;;;;;;5055940;28;20217;-85
2023/01/22 11:05:32;;;;;;;2.33;2.15;;;;;;;;;;5052305;28;20197;-86
2023/01/22 11:08:05;;;;;;;3.10;2.80;;;;;;;;;;5054185;28;20205;-85
2023/01/22 11:10:43;;;;;;;2.80;2.60;;;;;;;;;;5059186;28;20222;-82
2023/01/22 11:13:18;;;;;;;3.50;3.30;;;;;;;;;;5059166;28;20229;-84
2023/01/22 11:15:52;;;;;;;2.90;2.70;;;;;;;;;;5055270;28;20202;-83
2023/01/22 11:18:29;;;;;;;2.75;2.55;;;;;;;;;;5036881;28;20210;-84
2023/01/22 11:20:59;;;;;;;2.53;2.33;;;;;;;;;;5040050;28;20230;-85
2023/01/22 11:23:36;;;;;;;3.10;2.80;;;;;;;;;;5039686;28;20214;-84
2023/01/22 11:26:13;;;;;;;2.72;2.53;;;;;;;;;;5039033;28;20278;-83
2023/01/22 11:28:45;;;;;;;2.92;2.72;;;;;;;;;;5048917;28;20237;-85
2023/01/22 11:31:32;;;;;;;2.70;2.50;;;;;;;;;;5058145;28;20737;-84
2023/01/22 11:34:20;;;;;;;2.80;2.60;;;;;;;;;;5057850;28;20224;-83
2023/01/22 11:36:53;;;;;;;2.80;2.60;;;;;;;;;;5058144;28;20673;-84
2023/01/22 11:39:55;;;;;;;2.83;2.63;;;;;;;;;;5056444;28;20197;-84
2023/01/22 11:42:37;;;;;;;3.05;2.85;;;;;;;;;;5056281;28;20201;-86
2023/01/22 11:45:23;;;;;;;3.10;2.90;;;;;;;;;;5057174;28;21041;-85
2023/01/22 11:48:11;;;;;;;3.08;2.88;;;;;;;;;;5053768;28;20197;-86
2023/01/22 11:50:45;;;;;;;2.47;2.28;;;;;;;;;;5057261;28;20308;-84
2023/01/22 11:53:31;;;;;;;2.90;2.70;;;;;;;;;;5071860;28;20219;-85
2023/01/22 11:56:37;;;;;;;2.83;2.63;;;;;;;;;;5071488;28;20204;-87
2023/01/22 11:59:10;;;;;;;2.90;2.60;;;;;;;;;;5056587;28;20201;-86
2023/01/22 12:01:53;;;;;;;3.22;3.03;;;;;;;;;;5052259;28;20195;-87
2023/01/22 12:04:47;;;;;;;2.80;2.60;;;;;;;;;;5051384;28;20221;-89
2023/01/22 12:07:48;;;;;;;3.28;3.08;;;;;;;;;;5039128;28;20293;-88
2023/01/22 12:10:46;;;;;;;2.80;2.60;;;;;;;;;;5029918;28;20232;-86
2023/01/22 12:13:32;;;;;;;2.72;2.53;;;;;;;;;;5031892;28;20467;-85
2023/01/22 12:16:06;;;;;;;3.55;3.25;;;;;;;;;;5031679;28;20199;-85
2023/01/22 12:19:04;;;;;;;3.75;3.45;;;;;;;;;;5042723;28;20216;-85
2023/01/22 12:21:45;;;;;;;3.40;3.10;;;;;;;;;;5048009;28;20201;-84
2023/01/22 12:24:20;;;;;;;3.13;2.92;;;;;;;;;;5032202;28;20218;-84
2023/01/22 12:26:52;;;;;;;2.78;2.42;;;;;;;;;;5032321;28;20204;-85
2023/01/22 12:29:23;;;;;;;3.35;2.38;;;;;;;;;;5046985;28;20582;-85
2023/01/22 12:31:54;;;;;;;2.78;2.58;;;;;;;;;;5051343;28;20207;-85
2023/01/22 12:34:27;;;;;;;2.53;2.33;;;;;;;;;;5052106;28;20225;-84
2023/01/22 12:36:55;;;;;;;2.70;2.50;;;;;;;;;;5052130;28;20300;-85
2023/01/22 12:39:30;;;;;;;2.63;2.45;;;;;;;;;;5055025;28;20293;-87
2023/01/22 12:42:12;;;;;;;2.50;2.35;;;;;;;;;;5055001;28;20209;-86
2023/01/22 12:44:53;;;;;;;2.85;2.65;;;;;;;;;;5055416;28;20276;-87
2023/01/22 12:47:24;;;;;;;2.53;2.33;;;;;;;;;;5055012;28;20542;-87
2023/01/22 12:49:53;;;;;;;2.70;2.50;;;;;;;;;;5054330;28;20221;-87
2023/01/22 12:52:39;;;;;;;2.58;2.38;;;;;;;;;;5055092;28;20209;-87
2023/01/22 12:58:00;;;;;;;2.00;1.90;;;;;;;;;;5133161;27;21011;-87
2023/01/22 13:00:33;;;;;;;2.50;2.40;;;;;;;;;;5132399;27;20246;-84
2023/01/22 13:03:02;;;;;;;2.03;1.92;;;;;;;;;;5132841;27;20180;-87
2023/01/22 13:05:45;;;;;;;2.30;2.20;;;;;;;;;;5133111;27;20202;-86
2023/01/22 13:08:27;;;;;;;2.35;2.22;;;;;;;;;;5132447;27;20199;-85
2023/01/22 13:10:57;;;;;;;2.60;2.40;;;;;;;;;;5132183;27;20223;-86
2023/01/22 13:13:32;;;;;;;2.92;2.72;;;;;;;;;;5133250;27;20293;-87
2023/01/22 13:16:04;;;;;;;2.33;2.20;;;;;;;;;;5131801;27;20183;-87
2023/01/22 13:18:39;;;;;;;1.77;1.67;;;;;;;;;;5132211;27;20202;-87
2023/01/22 13:21:08;;;;;;;2.63;2.42;;;;;;;;;;5132297;27;20642;-86
2023/01/22 13:23:40;;;;;;;2.20;2.00;;;;;;;;;;5132396;27;20290;-85
2023/01/22 13:26:07;;;;;;;2.80;2.60;;;;;;;;;;5132523;27;20176;-87
2023/01/22 13:28:36;;;;;;;2.40;2.20;;;;;;;;;;5132906;27;20698;-86
2023/01/22 13:31:09;;;;;;;2.63;2.42;;;;;;;;;;5131420;27;20661;-86
2023/01/22 13:33:37;;;;;;;1.85;1.75;;;;;;;;;;5132283;27;20536;-86
2023/01/22 13:36:10;;;;;;;2.22;2.10;;;;;;;;;;5132599;27;20293;-85
2023/01/22 13:38:38;;;;;;;2.10;2.00;;;;;;;;;;5132014;27;20183;-87
2023/01/22 13:41:09;;;;;;;2.03;1.92;;;;;;;;;;5131503;27;20226;-86
2023/01/22 13:43:40;;;;;;;2.72;2.53;;;;;;;;;;5131550;27;20635;-85
2023/01/22 13:46:08;;;;;;;2.90;2.70;;;;;;;;;;5132456;27;20241;-86
2023/01/22 13:48:35;;;;;;;1.88;1.77;;;;;;;;;;5131840;27;20638;-85
2023/01/22 13:51:09;;;;;;;1.83;1.73;;;;;;;;;;5131482;27;20948;-85
2023/01/22 13:53:44;;;;;;;2.63;2.42;;;;;;;;;;5132306;27;20187;-85
2023/01/22 13:56:15;;;;;;;2.58;2.38;;;;;;;;;;5131724;27;20249;-87
2023/01/22 13:58:45;;;;;;;2.70;2.50;;;;;;;;;;5132101;27;20686;-86
2023/01/22 14:01:26;;;;;;;3.00;2.80;;;;;;;;;;5131716;27;20227;-86
2023/01/22 14:04:00;;;;;;;2.60;2.40;;;;;;;;;;5132503;27;20187;-85
2023/01/22 14:06:28;;;;;;;2.55;2.35;;;;;;;;;;5131488;27;20180;-85
2023/01/22 14:08:57;;;;;;;3.55;3.25;;;;;;;;;;5120455;27;20283;-86
2023/01/22 14:11:25;;;;;;;3.03;2.83;;;;;;;;;;5117484;28;20219;-87
2023/01/22 14:13:54;;;;;;;3.20;2.90;;;;;;;;;;5117916;28;20986;-86
2023/01/22 14:16:21;;;;;;;3.30;3.00;;;;;;;;;;5117513;28;20230;-88
2023/01/22 14:18:49;;;;;;;3.17;2.90;;;;;;;;;;5118252;28;20246;-86
2023/01/22 14:21:16;;;;;;;2.47;2.30;;;;;;;;;;5117338;28;20251;-85
2023/01/22 14:23:45;;;;;;;5.35;4.97;;;;;;;;;;5117099;27;20353;-84
2023/01/22 14:26:12;;;;;;;6.45;5.88;;;;;;;;;;5117116;28;20199;-86
2023/01/22 14:28:40;;;;;;;4.88;4.47;;;;;;;;;;5116706;27;20266;-85
2023/01/22 14:31:08;;;;;;;4.65;4.25;;;;;;;;;;5116612;28;20258;-87
2023/01/22 14:33:36;;;;;;;4.05;3.75;;;;;;;;;;5116798;28;20362;-84
2023/01/22 14:36:04;;;;;;;3.72;3.40;;;;;;;;;;5116935;28;20618;-85
2023/01/22 14:38:32;;;;;;;3.30;3.00;;;;;;;;;;5116217;28;20230;-85
2023/01/22 14:40:59;;;;;;;2.80;2.60;;;;;;;;;;5116793;28;20251;-86
2023/01/22 14:43:27;;;;;;;3.30;3.00;;;;;;;;;;5116774;28;20245;-85
2023/01/22 14:45:54;;;;;;;2.65;2.45;;;;;;;;;;5117164;28;20282;-87
2023/01/22 14:48:24;;;;;;;3.28;2.97;;;;;;;;;;5116587;28;20200;-86
2023/01/22 14:50:52;;;;;;;3.55;3.25;;;;;;;;;;5116333;28;20311;-87
2023/01/22 14:53:20;;;;;;;3.50;3.20;;;;;;;;;;5116067;28;20614;-85
2023/01/22 14:55:47;;;;;;;3.00;2.80;;;;;;;;;;5116407;28;20204;-85
2023/01/22 14:58:15;;;;;;;3.40;3.10;;;;;;;;;;5116885;28;20250;-85
2023/01/22 15:00:43;;;;;;;3.90;3.53;;;;;;;;;;5116662;28;20223;-86
2023/01/22 15:03:10;;;;;;;3.53;3.22;;;;;;;;;;5116716;28;20724;-85
2023/01/22 15:05:39;;;;;;;4.78;4.28;;;;;;;;;;5117044;28;20294;-86
2023/01/22 15:08:07;;;;;;;4.45;4.05;;;;;;;;;;5117074;28;20207;-87
2023/01/22 15:10:34;;;;;;;4.30;3.90;;;;;;;;;;5116508;28;20250;-86
2023/01/22 15:13:02;;;;;;;3.70;3.40;;;;;;;;;;5116596;28;20231;-86